createdAt,value
2024-02-15T00:00:28.528Z,96376.94
2024-02-15T00:02:31.930Z,96387.34
2024-02-15T00:04:35.569Z,96379.53
2024-02-15T00:06:39.833Z,96381.63
2024-02-15T00:08:42.799Z,96374.84
2024-02-15T00:10:47.214Z,96381.50
2024-02-15T00:12:52.206Z,96385.13
2024-02-15T00:14:54.669Z,96381.41
2024-02-15T00:16:57.996Z,96380.09
2024-02-15T00:19:01.554Z,96379.31
2024-02-15T00:21:05.054Z,96382.13
2024-02-15T00:23:09.360Z,96374.09
2024-02-15T00:25:12.595Z,96382.44
2024-02-15T00:27:16.515Z,96375.69
2024-02-15T00:29:19.520Z,96383.38
2024-02-15T00:31:22.430Z,96384.41
2024-02-15T00:33:25.322Z,96381.78
2024-02-15T00:35:28.785Z,96381.47
2024-02-15T00:37:32.027Z,96380.38
2024-02-15T00:39:36.176Z,96382.06
2024-02-15T00:41:43.214Z,96380.41
2024-02-15T00:43:46.457Z,96386.31
2024-02-15T00:45:49.561Z,96381.25
2024-02-15T00:47:51.547Z,96378.09
2024-02-15T00:49:54.656Z,96381.59
2024-02-15T00:51:57.574Z,96375.84
2024-02-15T00:53:59.501Z,96373.16
2024-02-15T00:56:04.121Z,96375.66
2024-02-15T00:58:07.031Z,96373.50
2024-02-15T01:00:11.319Z,96369.91
2024-02-15T01:02:13.883Z,96372.53
2024-02-15T01:04:17.555Z,96366.94
2024-02-15T01:06:20.502Z,96363.31
2024-02-15T01:08:23.417Z,96358.50
2024-02-15T01:10:27.041Z,96369.50
2024-02-15T01:12:31.293Z,96359.59
2024-02-15T01:14:34.463Z,96366.25
2024-02-15T01:16:37.955Z,96368.72
2024-02-15T01:18:41.059Z,96366.25
2024-02-15T01:20:44.088Z,96359.59
2024-02-15T01:22:46.945Z,96366.00
2024-02-15T01:24:50.064Z,96367.03
2024-02-15T01:26:52.882Z,96373.25
2024-02-15T01:28:57.429Z,96366.47
2024-02-15T01:31:00.309Z,96360.16
2024-02-15T01:33:03.303Z,96367.50
2024-02-15T01:35:05.818Z,96356.78
2024-02-15T01:37:08.696Z,96367.72
2024-02-15T01:39:12.086Z,96369.72
2024-02-15T01:41:15.070Z,96365.78
2024-02-15T01:43:18.134Z,96365.00
2024-02-15T01:45:22.815Z,96366.69
2024-02-15T01:47:25.693Z,96363.97
2024-02-15T01:49:30.190Z,96368.00
2024-02-15T01:51:34.575Z,96360.56
2024-02-15T01:53:37.686Z,96358.75
2024-02-15T01:55:41.809Z,96355.81
2024-02-15T01:57:46.796Z,96358.75
2024-02-15T01:59:52.930Z,96352.78
2024-02-15T02:02:02.206Z,96359.19
2024-02-15T02:04:05.590Z,96358.38
2024-02-15T02:06:10.084Z,96360.97
2024-02-15T02:08:13.188Z,96356.25
2024-02-15T02:10:16.734Z,96357.50
2024-02-15T02:12:20.336Z,96359.38
2024-02-15T02:14:23.620Z,96345.31
2024-02-15T02:16:26.302Z,96346.16
2024-02-15T02:18:30.652Z,96343.00
2024-02-15T02:20:32.684Z,96349.66
2024-02-15T02:22:37.547Z,96346.50
2024-02-15T02:24:46.509Z,96352.09
2024-02-15T02:26:51.553Z,96356.84
2024-02-15T02:28:54.539Z,96354.84
2024-02-15T02:30:57.737Z,96344.47
2024-02-15T02:33:01.146Z,96345.06
2024-02-15T02:35:04.650Z,96341.00
2024-02-15T02:37:08.958Z,96341.44
2024-02-15T02:39:11.831Z,96342.47
2024-02-15T02:41:14.704Z,96344.69
2024-02-15T02:43:18.895Z,96344.47
2024-02-15T02:45:23.901Z,96339.28
2024-02-15T02:47:27.306Z,96340.88
2024-02-15T02:49:30.178Z,96338.59
2024-02-15T02:51:33.089Z,96338.59
2024-02-15T02:53:36.781Z,96332.28
2024-02-15T02:55:39.637Z,96334.28
2024-02-15T02:57:42.686Z,96329.56
2024-02-15T02:59:48.269Z,96331.56
2024-02-15T03:01:51.127Z,96327.97
2024-02-15T03:03:56.291Z,96339.13
2024-02-15T03:05:59.803Z,96336.31
2024-02-15T03:08:01.698Z,96336.75
2024-02-15T03:10:05.832Z,96341.91
2024-02-15T03:12:10.873Z,96347.25
2024-02-15T03:14:14.111Z,96341.50
2024-02-15T03:16:17.800Z,96344.66
2024-02-15T03:18:20.655Z,96347.25
2024-02-15T03:20:25.257Z,96347.81
2024-02-15T03:22:30.360Z,96343.06
2024-02-15T03:24:33.211Z,96340.28
2024-02-15T03:26:38.286Z,96336.44
2024-02-15T03:28:41.290Z,96344.56
2024-02-15T03:30:44.421Z,96337.00
2024-02-15T03:32:49.449Z,96340.63
2024-02-15T03:34:52.620Z,96341.06
2024-02-15T03:36:55.627Z,96341.50
2024-02-15T03:38:57.558Z,96335.94
2024-02-15T03:41:00.842Z,96335.16
2024-02-15T03:43:07.801Z,96344.72
2024-02-15T03:45:12.146Z,96345.31
2024-02-15T03:47:16.031Z,96343.50
2024-02-15T03:49:20.314Z,96346.09
2024-02-15T03:51:25.553Z,96339.47
2024-02-15T03:53:31.380Z,96345.09
2024-02-15T03:55:36.424Z,96340.91
2024-02-15T03:57:41.988Z,96350.97
2024-02-15T03:59:47.108Z,96347.34
2024-02-15T04:01:50.036Z,96348.72
2024-02-15T04:03:53.053Z,96343.75
2024-02-15T04:05:57.429Z,96341.53
2024-02-15T04:08:03.373Z,96342.09
2024-02-15T04:10:07.612Z,96340.31
2024-02-15T04:12:10.982Z,96337.81
2024-02-15T04:14:13.786Z,96340.41
2024-02-15T04:16:15.706Z,96345.59
2024-02-15T04:18:18.532Z,96339.63
2024-02-15T04:20:22.546Z,96337.59
2024-02-15T04:22:26.747Z,96344.00
2024-02-15T04:24:30.834Z,96345.59
2024-02-15T04:26:34.746Z,96347.63
2024-02-15T04:28:37.628Z,96343.47
2024-02-15T04:30:41.684Z,96348.88
2024-02-15T04:32:44.728Z,96341.44
2024-02-15T04:34:48.266Z,96339.28
2024-02-15T04:36:52.081Z,96336.50
2024-02-15T04:38:56.296Z,96337.50
2024-02-15T04:41:01.344Z,96331.31
2024-02-15T04:43:05.393Z,96334.69
2024-02-15T04:45:09.767Z,96336.72
2024-02-15T04:47:12.794Z,96328.94
2024-02-15T04:49:15.434Z,96329.94
2024-02-15T04:51:21.004Z,96323.75
2024-02-15T04:53:23.882Z,96323.75
2024-02-15T04:55:28.286Z,96324.34
2024-02-15T04:57:31.308Z,96328.03
2024-02-15T04:59:34.087Z,96336.38
2024-02-15T05:01:37.702Z,96326.47
2024-02-15T05:03:40.559Z,96324.66
2024-02-15T05:05:42.958Z,96322.84
2024-02-15T05:07:46.070Z,96321.28
2024-02-15T05:09:48.955Z,96314.50
2024-02-15T05:11:54.035Z,96313.25
2024-02-15T05:13:56.789Z,96304.91
2024-02-15T05:15:59.711Z,96307.72
2024-02-15T05:18:03.310Z,96303.13
2024-02-15T05:20:12.056Z,96309.56
2024-02-15T05:22:16.454Z,96311.34
2024-02-15T05:24:21.199Z,96311.44
2024-02-15T05:26:24.637Z,96312.31
2024-02-15T05:28:30.905Z,96305.41
2024-02-15T05:30:34.738Z,96307.91
2024-02-15T05:32:42.601Z,96308.75
2024-02-15T05:34:45.889Z,96312.78
2024-02-15T05:36:49.361Z,96308.06
2024-02-15T05:38:53.357Z,96315.25
2024-02-15T05:40:56.574Z,96315.25
2024-02-15T05:43:00.103Z,96319.28
2024-02-15T05:45:34.543Z,96326.03
2024-02-15T05:47:37.773Z,96324.44
2024-02-15T05:49:40.527Z,96328.41
2024-02-15T05:51:45.300Z,96324.44
2024-02-15T05:53:48.409Z,96321.44
2024-02-15T05:55:51.208Z,96328.19
2024-02-15T05:57:54.559Z,96334.94
2024-02-15T06:00:04.332Z,96334.78
2024-02-15T06:02:09.298Z,96335.16
2024-02-15T06:04:12.140Z,96334.78
2024-02-15T06:06:15.207Z,96333.22
2024-02-15T06:08:18.639Z,96329.34
2024-02-15T06:10:21.365Z,96331.50
2024-02-15T06:12:23.165Z,96325.75
2024-02-15T06:14:26.436Z,96328.91
2024-02-15T06:16:29.444Z,96322.16
2024-02-15T06:18:34.488Z,96332.16
2024-02-15T06:20:37.587Z,96330.19
2024-02-15T06:22:40.854Z,96322.31
2024-02-15T06:24:44.017Z,96325.53
2024-02-15T06:26:48.833Z,96320.25
2024-02-15T06:29:17.778Z,96319.00
2024-02-15T06:31:40.733Z,96305.72
2024-02-15T06:34:03.449Z,96308.22
2024-02-15T06:36:25.176Z,96311.03
2024-02-15T06:38:45.322Z,96310.03
2024-02-15T06:40:48.200Z,96312.41
2024-02-15T06:42:51.039Z,96314.41
2024-02-15T06:44:53.826Z,96305.63
2024-02-15T06:46:55.583Z,96315.66
2024-02-15T06:48:59.926Z,96313.28
2024-02-15T06:51:04.319Z,96307.31
2024-02-15T06:53:07.189Z,96306.53
2024-02-15T06:55:13.056Z,96313.69
2024-02-15T06:57:17.026Z,96303.06
2024-02-15T06:59:20.536Z,96307.66
2024-02-15T07:01:26.318Z,96306.09
2024-02-15T07:03:31.047Z,96309.81
2024-02-15T07:05:35.328Z,96301.06
2024-02-15T07:07:40.106Z,96300.63
2024-02-15T07:09:42.886Z,96305.94
2024-02-15T07:11:51.370Z,96304.84
2024-02-15T07:13:56.176Z,96302.53
2024-02-15T07:15:59.063Z,96301.09
2024-02-15T07:18:02.289Z,96302.59
2024-02-15T07:20:06.873Z,96306.03
2024-02-15T07:22:10.598Z,96310.81
2024-02-15T07:24:13.652Z,96307.25
2024-02-15T07:26:16.401Z,96302.69
2024-02-15T07:28:20.385Z,96308.53
2024-02-15T07:30:26.128Z,96300.03
2024-02-15T07:32:29.340Z,96298.34
2024-02-15T07:34:32.189Z,96304.31
2024-02-15T07:36:34.929Z,96296.00
2024-02-15T07:38:39.052Z,96283.94
2024-02-15T07:40:40.938Z,96290.16
2024-02-15T07:42:43.992Z,96278.63
2024-02-15T07:44:46.763Z,96276.97
2024-02-15T07:46:51.501Z,96267.47
2024-02-15T07:48:54.409Z,96269.63
2024-02-15T07:50:59.481Z,96272.56
2024-02-15T07:53:02.230Z,96265.13
2024-02-15T07:55:10.050Z,96270.38
2024-02-15T07:57:13.171Z,96271.06
2024-02-15T07:59:17.842Z,96260.22
2024-02-15T08:01:22.511Z,96261.34
2024-02-15T08:03:26.076Z,96252.13
2024-02-15T08:05:29.041Z,96248.50
2024-02-15T08:07:35.838Z,96250.63
2024-02-15T08:09:41.976Z,96249.16
2024-02-15T08:11:47.837Z,96254.69
2024-02-15T08:13:55.575Z,96255.00
2024-02-15T08:15:58.707Z,96253.91
2024-02-15T08:18:06.256Z,96256.16
2024-02-15T08:20:10.818Z,96245.56
2024-02-15T08:22:13.616Z,96252.00
2024-02-15T08:24:15.357Z,96244.59
2024-02-15T08:26:18.813Z,96239.72
2024-02-15T08:28:25.590Z,96242.41
2024-02-15T08:30:28.898Z,96230.66
2024-02-15T08:32:31.804Z,96231.38
2024-02-15T08:34:35.272Z,96241.59
2024-02-15T08:36:38.198Z,96234.22
2024-02-15T08:38:42.502Z,96245.50
2024-02-15T08:40:46.903Z,96231.81
2024-02-15T08:42:49.721Z,96232.94
2024-02-15T08:44:54.121Z,96220.41
2024-02-15T08:46:57.551Z,96227.84
2024-02-15T08:51:07.078Z,96226.38
2024-02-15T08:53:10.067Z,96230.41
2024-02-15T08:55:15.522Z,96226.94
2024-02-15T08:57:20.337Z,96227.94
2024-02-15T08:59:23.300Z,96223.69
2024-02-15T09:01:27.423Z,96220.66
2024-02-15T09:03:29.363Z,96220.34
2024-02-15T09:05:32.191Z,96211.66
2024-02-15T09:07:35.026Z,96207.06
2024-02-15T09:09:37.843Z,96211.38
2024-02-15T09:11:40.678Z,96212.81
2024-02-15T09:13:43.486Z,96212.69
2024-02-15T09:15:48.433Z,96210.53
2024-02-15T09:17:52.048Z,96207.88
2024-02-15T09:19:55.993Z,96202.81
2024-02-15T09:21:58.890Z,96204.47
2024-02-15T09:24:01.633Z,96200.94
2024-02-15T09:26:05.233Z,96204.69
2024-02-15T09:28:08.169Z,96197.25
2024-02-15T09:30:13.145Z,96191.41
2024-02-15T09:32:16.082Z,96193.06
2024-02-15T09:34:20.331Z,96196.28
2024-02-15T09:36:22.314Z,96187.81
2024-02-15T09:38:26.363Z,96181.13
2024-02-15T09:40:30.915Z,96183.03
2024-02-15T09:42:35.796Z,96176.06
2024-02-15T09:44:47.659Z,96174.78
2024-02-15T09:46:58.675Z,96174.03
2024-02-15T09:49:01.888Z,96167.56
2024-02-15T09:51:07.115Z,96167.59
2024-02-15T09:53:10.407Z,96168.16
2024-02-15T09:55:14.307Z,96166.63
2024-02-15T09:57:19.278Z,96167.72
2024-02-15T09:59:22.433Z,96163.56
2024-02-15T10:01:27.162Z,96159.88
2024-02-15T10:03:32.433Z,96166.69
2024-02-15T10:05:35.432Z,96163.53
2024-02-15T10:07:39.826Z,96159.13
2024-02-15T10:09:44.049Z,96156.50
2024-02-15T10:11:57.881Z,96156.81
2024-02-15T10:14:12.625Z,96157.31
2024-02-15T10:16:18.217Z,96147.38
2024-02-15T10:18:23.525Z,96147.88
2024-02-15T10:20:27.232Z,96150.19
2024-02-15T10:22:30.144Z,96146.00
2024-02-15T10:24:33.338Z,96148.84
2024-02-15T10:26:37.371Z,96144.94
2024-02-15T10:28:40.377Z,96140.22
2024-02-15T10:30:46.361Z,96146.47
2024-02-15T10:32:50.464Z,96146.16
2024-02-15T10:34:54.941Z,96146.63
2024-02-15T10:37:12.218Z,96146.59
2024-02-15T10:39:18.823Z,96149.91
2024-02-15T10:41:24.000Z,96149.06
2024-02-15T10:43:27.197Z,96148.50
2024-02-15T10:45:31.935Z,96144.31
2024-02-15T10:47:38.175Z,96150.00
2024-02-15T10:49:44.374Z,96143.34
2024-02-15T10:51:57.461Z,96134.34
2024-02-15T10:54:04.633Z,96131.09
2024-02-15T10:56:20.348Z,96126.00
2024-02-15T10:58:30.395Z,96130.59
2024-02-15T11:00:38.519Z,96119.59
2024-02-15T11:02:46.301Z,96119.22
2024-02-15T11:04:52.125Z,96114.63
2024-02-15T11:06:57.643Z,96116.56
2024-02-15T11:09:01.352Z,96107.44
2024-02-15T11:11:06.155Z,96105.72
2024-02-15T11:13:10.002Z,96108.97
2024-02-15T11:15:14.533Z,96108.00
2024-02-15T11:17:49.629Z,96110.91
2024-02-15T11:19:53.795Z,96104.94
2024-02-15T11:21:58.064Z,96105.31
2024-02-15T11:24:30.580Z,96108.88
2024-02-15T11:26:49.441Z,96101.72
2024-02-15T11:28:52.120Z,96098.03
2024-02-15T11:30:58.247Z,96095.44
2024-02-15T11:33:01.165Z,96096.78
2024-02-15T11:35:12.505Z,96092.19
2024-02-15T11:37:49.009Z,96090.34
2024-02-15T11:40:01.086Z,96093.19
2024-02-15T11:42:30.125Z,96088.81
2024-02-15T11:44:33.702Z,96078.59
2024-02-15T11:46:40.200Z,96087.75
2024-02-15T11:48:42.457Z,96086.81
2024-02-15T11:50:46.080Z,96085.03
2024-02-15T11:52:50.049Z,96079.47
2024-02-15T11:54:52.823Z,96081.44
2024-02-15T11:57:06.234Z,96075.66
2024-02-15T11:59:09.477Z,96071.34
2024-02-15T12:01:31.738Z,96076.25
2024-02-15T12:04:00.989Z,96063.28
2024-02-15T12:06:28.427Z,96068.16
2024-02-15T12:08:49.141Z,96059.25
2024-02-15T12:11:17.338Z,96057.06
2024-02-15T12:13:37.817Z,96054.75
2024-02-15T12:15:58.238Z,96059.91
2024-02-15T12:18:33.644Z,96051.81
2024-02-15T12:20:38.212Z,96049.06
2024-02-15T12:22:43.945Z,96047.09
2024-02-15T12:24:47.813Z,96049.63
2024-02-15T12:26:51.913Z,96048.41
2024-02-15T12:28:57.293Z,96040.63
2024-02-15T12:31:00.225Z,96040.63
2024-02-15T12:33:11.982Z,96044.53
2024-02-15T12:35:18.566Z,96030.19
2024-02-15T12:37:24.863Z,96021.34
2024-02-15T12:39:26.931Z,96026.13
2024-02-15T12:41:32.036Z,96024.09
2024-02-15T12:43:35.369Z,96019.94
2024-02-15T12:45:39.590Z,96022.78
2024-02-15T12:47:42.858Z,96013.59
2024-02-15T12:49:45.743Z,96012.72
2024-02-15T12:51:52.453Z,96016.41
2024-02-15T12:54:10.730Z,96002.28
2024-02-15T12:56:22.262Z,96003.97
2024-02-15T12:58:27.554Z,95999.81
2024-02-15T13:00:32.579Z,95997.28
2024-02-15T13:02:35.771Z,95995.63
2024-02-15T13:04:39.511Z,95997.63
2024-02-15T13:06:42.681Z,95998.03
2024-02-15T13:08:49.802Z,95999.69
2024-02-15T13:10:54.100Z,95999.13
2024-02-15T13:12:58.720Z,95997.22
2024-02-15T13:15:00.835Z,95993.13
2024-02-15T13:17:04.846Z,95998.81
2024-02-15T13:19:08.441Z,95992.38
2024-02-15T13:21:11.745Z,95992.53
2024-02-15T13:23:20.782Z,95987.38
2024-02-15T13:25:23.890Z,95977.56
2024-02-15T13:27:28.048Z,95974.06
2024-02-15T13:29:30.758Z,95964.88
2024-02-15T13:31:36.016Z,95969.56
2024-02-15T13:33:39.231Z,95961.75
2024-02-15T13:35:45.396Z,95956.69
2024-02-15T13:37:50.881Z,95948.19
2024-02-15T13:39:53.890Z,95939.53
2024-02-15T13:41:57.379Z,95943.22
2024-02-15T13:44:01.563Z,95948.31
2024-02-15T13:46:04.402Z,95942.53
2024-02-15T13:48:08.980Z,95940.00
2024-02-15T13:50:15.397Z,95934.44
2024-02-15T13:52:18.261Z,95941.28
2024-02-15T13:54:20.130Z,95941.09
2024-02-15T13:56:23.152Z,95945.34
2024-02-15T13:58:25.981Z,95937.25
2024-02-15T14:00:34.468Z,95931.88
2024-02-15T14:02:37.644Z,95930.13
2024-02-15T14:04:40.626Z,95935.03
2024-02-15T14:06:45.337Z,95930.75
2024-02-15T14:08:48.574Z,95926.41
2024-02-15T14:10:51.987Z,95925.72
2024-02-15T14:12:59.267Z,95918.19
2024-02-15T14:15:02.166Z,95916.25
2024-02-15T14:17:06.544Z,95914.28
2024-02-15T14:19:09.990Z,95922.44
2024-02-15T14:21:17.858Z,95919.50
2024-02-15T14:23:20.654Z,95919.38
2024-02-15T14:25:23.665Z,95915.91
2024-02-15T14:27:25.508Z,95920.75
2024-02-15T14:29:34.116Z,95914.69
2024-02-15T14:31:54.157Z,95918.78
2024-02-15T14:33:57.819Z,95918.28
2024-02-15T14:36:01.307Z,95911.78
2024-02-15T14:38:07.315Z,95905.94
2024-02-15T14:40:10.364Z,95907.47
2024-02-15T14:44:19.508Z,95907.97
2024-02-15T14:46:22.194Z,95913.72
2024-02-15T14:48:25.738Z,95907.97
2024-02-15T14:50:30.121Z,95899.56
2024-02-15T14:52:33.070Z,95910.38
2024-02-15T14:54:37.443Z,95907.84
2024-02-15T14:56:41.364Z,95898.66
2024-02-15T14:58:44.742Z,95897.53
2024-02-15T15:00:48.777Z,95899.50
2024-02-15T15:02:52.013Z,95899.44
2024-02-15T15:04:59.038Z,95902.97
2024-02-15T15:07:20.624Z,95896.97
2024-02-15T15:09:41.355Z,95896.13
2024-02-15T15:12:01.886Z,95897.97
2024-02-15T15:14:06.907Z,95894.50
2024-02-15T15:16:15.280Z,95903.69
2024-02-15T15:18:17.209Z,95903.78
2024-02-15T15:20:20.988Z,95898.94
2024-02-15T15:22:25.089Z,95891.25
2024-02-15T15:24:27.920Z,95884.34
2024-02-15T15:26:32.453Z,95887.69
2024-02-15T15:28:36.863Z,95889.94
2024-02-15T15:30:39.673Z,95890.25
2024-02-15T15:32:42.573Z,95889.69
2024-02-15T15:34:45.767Z,95885.72
2024-02-15T15:36:49.272Z,95885.03
2024-02-15T15:38:53.306Z,95885.22
2024-02-15T15:40:56.093Z,95883.84
2024-02-15T15:42:58.791Z,95883.19
2024-02-15T15:45:01.554Z,95877.22
2024-02-15T15:47:06.088Z,95869.13
2024-02-15T15:49:09.083Z,95876.34
2024-02-15T15:51:12.024Z,95869.88
2024-02-15T15:53:14.942Z,95872.91
2024-02-15T15:55:20.485Z,95876.22
2024-02-15T15:57:22.759Z,95867.00
2024-02-15T15:59:25.597Z,95865.63
2024-02-15T16:01:29.831Z,95856.34
2024-02-15T16:03:33.048Z,95872.69
2024-02-15T16:05:35.957Z,95868.09
2024-02-15T16:07:39.041Z,95868.72
2024-02-15T16:09:43.767Z,95876.56
2024-02-15T16:11:48.862Z,95875.88
2024-02-15T16:13:51.630Z,95864.19
2024-02-15T16:15:56.098Z,95861.97
2024-02-15T16:17:59.512Z,95857.44
2024-02-15T16:20:05.697Z,95859.28
2024-02-15T16:22:08.570Z,95852.38
2024-02-15T16:24:12.852Z,95857.28
2024-02-15T16:26:15.649Z,95848.22
2024-02-15T16:28:19.780Z,95852.75
2024-02-15T16:30:22.715Z,95853.31
2024-02-15T16:32:24.655Z,95855.75
2024-02-15T16:34:27.668Z,95855.22
2024-02-15T16:36:30.498Z,95849.53
2024-02-15T16:38:34.425Z,95846.41
2024-02-15T16:40:37.130Z,95842.00
2024-02-15T16:42:43.535Z,95843.91
2024-02-15T16:44:48.505Z,95837.38
2024-02-15T16:46:50.368Z,95833.97
2024-02-15T16:48:53.970Z,95837.13
2024-02-15T16:50:59.054Z,95834.56
2024-02-15T16:53:02.138Z,95838.03
2024-02-15T16:55:07.041Z,95834.88
2024-02-15T16:57:15.302Z,95833.59
2024-02-15T16:59:19.815Z,95836.00
2024-02-15T17:01:23.999Z,95832.09
2024-02-15T17:03:27.173Z,95839.44
2024-02-15T17:05:30.506Z,95825.06
2024-02-15T17:07:33.273Z,95837.88
2024-02-15T17:09:36.697Z,95838.41
2024-02-15T17:11:40.995Z,95834.75
2024-02-15T17:13:45.318Z,95837.91
2024-02-15T17:15:48.046Z,95840.06
2024-02-15T17:17:51.839Z,95837.47
2024-02-15T17:19:54.719Z,95837.00
2024-02-15T17:21:57.442Z,95842.25
2024-02-15T17:24:00.325Z,95841.47
2024-02-15T17:26:05.843Z,95845.44
2024-02-15T17:28:10.147Z,95849.69
2024-02-15T17:30:13.407Z,95853.66
2024-02-15T17:32:16.511Z,95853.69
2024-02-15T17:34:21.431Z,95858.69
2024-02-15T17:36:24.899Z,95852.94
2024-02-15T17:38:27.681Z,95850.88
2024-02-15T17:40:30.725Z,95853.22
2024-02-15T17:42:32.629Z,95857.13
2024-02-15T17:44:35.418Z,95852.47
2024-02-15T17:46:38.816Z,95849.84
2024-02-15T17:48:42.690Z,95852.97
2024-02-15T17:50:46.998Z,95858.19
2024-02-15T17:52:49.812Z,95860.81
2024-02-15T17:54:52.822Z,95865.25
2024-02-15T17:56:56.148Z,95869.22
2024-02-15T17:58:58.000Z,95859.78
2024-02-15T18:01:00.803Z,95866.88
2024-02-15T18:03:02.621Z,95866.63
2024-02-15T18:05:08.624Z,95865.13
2024-02-15T18:07:14.871Z,95866.16
2024-02-15T18:09:18.875Z,95866.72
2024-02-15T18:11:22.249Z,95863.03
2024-02-15T18:13:25.267Z,95864.66
2024-02-15T18:15:33.315Z,95861.50
2024-02-15T18:17:36.101Z,95866.94
2024-02-15T18:19:39.158Z,95852.31
2024-02-15T18:21:45.530Z,95847.34
2024-02-15T18:23:49.631Z,95854.91
2024-02-15T18:25:54.579Z,95838.44
2024-02-15T18:27:57.566Z,95826.69
2024-02-15T18:30:00.607Z,95834.28
2024-02-15T18:32:03.580Z,95834.28
2024-02-15T18:34:09.902Z,95831.66
2024-02-15T18:36:13.267Z,95815.97
2024-02-15T18:38:16.753Z,95819.63
2024-02-15T18:40:25.121Z,95823.03
2024-02-15T18:42:28.711Z,95817.03
2024-02-15T18:44:31.450Z,95824.88
2024-02-15T18:46:41.511Z,95816.50
2024-02-15T18:48:45.167Z,95817.56
2024-02-15T18:50:48.749Z,95818.13
2024-02-15T18:52:51.983Z,95817.88
2024-02-15T18:54:58.177Z,95816.84
2024-02-15T18:57:02.620Z,95821.59
2024-02-15T18:59:07.317Z,95825.03
2024-02-15T19:01:11.278Z,95820.31
2024-02-15T19:03:14.153Z,95815.41
2024-02-15T19:05:16.208Z,95809.41
2024-02-15T19:07:19.122Z,95811.47
2024-02-15T19:09:21.859Z,95808.34
2024-02-15T19:11:27.555Z,95811.47
2024-02-15T19:13:31.735Z,95818.75
2024-02-15T19:15:34.539Z,95824.75
2024-02-15T19:17:38.887Z,95817.75
2024-02-15T19:19:41.717Z,95813.56
2024-02-15T19:21:44.604Z,95823.50
2024-02-15T19:23:47.400Z,95816.22
2024-02-15T19:25:50.309Z,95816.22
2024-02-15T19:27:55.156Z,95819.34
2024-02-15T19:29:59.475Z,95815.47
2024-02-15T19:32:02.243Z,95818.34
2024-02-15T19:34:05.285Z,95809.97
2024-02-15T19:36:09.304Z,95822.00
2024-02-15T19:38:12.402Z,95812.84
2024-02-15T19:40:18.985Z,95811.03
2024-02-15T19:42:23.139Z,95811.03
2024-02-15T19:44:26.165Z,95814.19
2024-02-15T19:46:33.983Z,95806.34
2024-02-15T19:48:36.899Z,95802.19
2024-02-15T19:50:39.954Z,95805.56
2024-02-15T19:52:43.543Z,95802.19
2024-02-15T19:54:46.983Z,95807.91
2024-02-15T19:56:50.060Z,95809.50
2024-02-15T19:58:56.038Z,95807.41
2024-02-15T20:00:58.880Z,95805.31
2024-02-15T20:03:05.637Z,95816.53
2024-02-15T20:05:09.589Z,95812.88
2024-02-15T20:07:12.604Z,95807.97
2024-02-15T20:09:18.380Z,95804.81
2024-02-15T20:11:27.020Z,95802.22
2024-02-15T20:13:29.920Z,95802.22
2024-02-15T20:15:34.307Z,95802.75
2024-02-15T20:17:36.510Z,95804.31
2024-02-15T20:19:40.795Z,95803.22
2024-02-15T20:21:43.687Z,95805.31
2024-02-15T20:23:46.912Z,95803.50
2024-02-15T20:25:49.757Z,95803.75
2024-02-15T20:27:54.120Z,95803.75
2024-02-15T20:29:57.075Z,95799.06
2024-02-15T20:32:00.703Z,95796.97
2024-02-15T20:34:05.090Z,95795.41
2024-02-15T20:36:10.015Z,95792.28
2024-02-15T20:38:17.755Z,95784.97
2024-02-15T20:40:20.964Z,95796.44
2024-02-15T20:42:24.131Z,95793.31
2024-02-15T20:44:27.249Z,95801.13
2024-02-15T20:46:30.884Z,95794.06
2024-02-15T20:48:33.826Z,95788.06
2024-02-15T20:50:36.860Z,95793.81
2024-02-15T20:52:41.063Z,95792.75
2024-02-15T20:54:45.614Z,95793.78
2024-02-15T20:56:49.858Z,95803.66
2024-02-15T20:58:52.781Z,95798.94
2024-02-15T21:01:03.690Z,95801.56
2024-02-15T21:03:07.889Z,95798.66
2024-02-15T21:05:10.478Z,95799.69
2024-02-15T21:07:13.739Z,95798.13
2024-02-15T21:09:45.454Z,95815.78
2024-02-15T21:14:44.825Z,95806.13
2024-02-15T21:17:08.873Z,95808.19
2024-02-15T21:19:12.983Z,95808.44
2024-02-15T21:21:16.613Z,95801.66
2024-02-15T21:23:19.592Z,95803.19
2024-02-15T21:25:23.853Z,95804.47
2024-02-15T21:27:25.781Z,95804.22
2024-02-15T21:29:28.533Z,95802.63
2024-02-15T21:31:31.400Z,95795.03
2024-02-15T21:33:35.075Z,95793.00
2024-02-15T21:35:37.948Z,95789.34
2024-02-15T21:37:40.695Z,95789.34
2024-02-15T21:39:43.768Z,95786.69
2024-02-15T21:41:49.645Z,95785.16
2024-02-15T21:43:52.500Z,95779.94
2024-02-15T21:45:58.363Z,95785.34
2024-02-15T21:48:04.309Z,95784.56
2024-02-15T21:50:08.128Z,95783.50
2024-02-15T21:52:11.498Z,95773.09
2024-02-15T21:54:15.637Z,95770.50
2024-02-15T21:56:20.141Z,95767.91
2024-02-15T21:58:24.369Z,95765.56
2024-02-15T22:00:26.829Z,95761.19
2024-02-15T22:02:29.815Z,95763.28
2024-02-15T22:04:31.646Z,95760.94
2024-02-15T22:06:34.616Z,95765.63
2024-02-15T22:08:37.478Z,95764.59
2024-02-15T22:10:44.243Z,95759.97
2024-02-15T22:12:47.082Z,95757.34
2024-02-15T22:14:53.802Z,95761.03
2024-02-15T22:16:56.813Z,95762.84
2024-02-15T22:19:01.134Z,95761.03
2024-02-15T22:21:05.245Z,95755.56
2024-02-15T22:23:08.486Z,95749.84
2024-02-15T22:25:11.796Z,95759.47
2024-02-15T22:27:16.426Z,95747.22
2024-02-15T22:29:19.787Z,95743.59
2024-02-15T22:31:24.409Z,95752.75
2024-02-15T22:33:28.377Z,95753.53
2024-02-15T22:35:31.255Z,95756.13
2024-02-15T22:37:34.808Z,95749.66
2024-02-15T22:39:37.712Z,95751.50
2024-02-15T22:41:40.713Z,95747.56
2024-02-15T22:43:45.578Z,95747.56
2024-02-15T22:45:49.090Z,95752.00
2024-02-15T22:47:53.427Z,95752.78
2024-02-15T22:49:57.078Z,95747.28
2024-02-15T22:52:01.919Z,95750.97
2024-02-15T22:54:05.397Z,95756.69
2024-02-15T22:56:10.317Z,95742.91
2024-02-15T22:58:13.217Z,95748.34
2024-02-15T23:00:15.939Z,95743.66
2024-02-15T23:02:18.860Z,95746.78
2024-02-15T23:04:23.084Z,95740.28
2024-02-15T23:06:26.045Z,95753.06
2024-02-15T23:08:29.342Z,95739.75
2024-02-15T23:10:32.162Z,95741.34
2024-02-15T23:12:36.993Z,95745.53
2024-02-15T23:14:39.895Z,95740.59
2024-02-15T23:16:43.241Z,95748.94
2024-02-15T23:18:46.314Z,95749.47
2024-02-15T23:20:51.339Z,95746.34
2024-02-15T23:22:54.176Z,95752.59
2024-02-15T23:24:59.873Z,95751.81
2024-02-15T23:27:03.956Z,95755.72
2024-02-15T23:29:07.363Z,95758.31
2024-02-15T23:31:13.460Z,95761.97
2024-02-15T23:33:20.131Z,95756.25
2024-02-15T23:35:31.751Z,95751.06
2024-02-15T23:37:53.351Z,95748.19
2024-02-15T23:40:13.741Z,95752.09
2024-02-15T23:42:16.906Z,95749.47
2024-02-15T23:44:21.089Z,95752.09
2024-02-15T23:46:23.899Z,95753.66
2024-02-15T23:48:28.079Z,95761.97
2024-02-15T23:50:33.784Z,95754.72
2024-02-15T23:52:38.720Z,95759.13
2024-02-15T23:54:41.676Z,95760.44
2024-02-15T23:56:44.947Z,95765.91
2024-02-15T23:58:47.941Z,95760.19
